Time;durP1;ratioP1;P1;durP2;ratioP2;P2;SDS_P1;SDS_P2;PMS_P1;PMS_P2;Temp;Humidity;BMP_temperature;BMP_pressure;BME280_temperature;BME280_humidity;BME280_pressure;Samples;Min_cycle;Max_cycle;Signal;HPM_P1;HPM_P2
2022/10/02 00:02:38;;;;;;;;;;;;;;;-142.75;100.00;77007.31;5030833;28;19944;-68
2022/10/02 00:05:06;;;;;;;;;;;;;;;-142.75;100.00;77003.38;5022628;28;19921;-69
2022/10/02 00:07:39;;;;;;;;;;;;;;;-142.75;100.00;76989.59;5031423;28;19944;-70
2022/10/02 00:10:27;;;;;;;;;;;;;;;-142.75;100.00;76991.56;5030788;28;19917;-69
2022/10/02 00:12:55;;;;;;;;;;;;;;;-142.75;100.00;76987.63;5028855;28;19928;-69
2022/10/02 00:15:23;;;;;;;;;;;;;;;-142.75;100.00;76975.81;5036050;28;20367;-70
2022/10/02 00:17:49;;;;;;;;;;;;;;;-142.75;100.00;76967.94;5035653;28;19920;-70
2022/10/02 00:20:16;;;;;;;;;;;;;;;-142.75;100.00;76965.97;5035977;28;19913;-70
2022/10/02 00:23:00;;;;;;;;;;;;;;;-142.75;100.00;76954.16;5035992;28;19959;-71
2022/10/02 00:25:40;;;;;;;;;;;;;;;-142.75;100.00;76956.13;5035868;28;19913;-70
2022/10/02 00:28:05;;;;;;;;;;;;;;;-142.75;100.00;76956.13;5035598;28;19913;-70
2022/10/02 00:30:35;;;;;;;;;;;;;;;-142.75;100.00;76946.28;5035684;28;19920;-71
2022/10/02 00:33:21;;;;;;;;;;;;;;;-142.75;100.00;76950.22;5035840;28;19936;-70
2022/10/02 00:36:05;;;;;;;;;;;;;;;-142.75;100.00;76942.34;5035667;28;20008;-70
2022/10/02 00:38:41;;;;;;;;;;;;;;;-142.75;100.00;76930.53;5035310;28;20286;-69
2022/10/02 00:41:12;;;;;;;;;;;;;;;-142.75;100.00;76932.50;5035660;28;19913;-70
2022/10/02 00:43:57;;;;;;;;;;;;;;;-142.75;100.00;76916.75;5034101;28;19918;-71
2022/10/02 00:46:23;;;;;;;;;;;;;;;-142.75;100.00;76920.69;5044437;28;19917;-67
2022/10/02 00:49:00;;;;;;;;;;;;;;;-142.75;100.00;76906.91;5055175;28;20279;-67
2022/10/02 00:51:34;;;;;;;;;;;;;;;-142.75;100.00;76910.84;5054052;28;20385;-67
2022/10/02 00:53:59;;;;;;;;;;;;;;;-142.75;100.00;76901.00;5055288;28;19913;-67
2022/10/02 00:56:46;;;;;;;;;;;;;;;-142.75;100.00;76891.16;5055144;28;20370;-67
2022/10/02 00:59:11;;;;;;;;;;;;;;;-142.75;100.00;76893.13;5055240;28;20386;-67
2022/10/02 01:01:50;;;;;;;;;;;;;;;-142.75;100.00;76883.28;5054940;28;19916;-67
2022/10/02 01:04:35;;;;;;;;;;;;;;;-142.75;100.00;76879.34;5055082;28;19986;-67
2022/10/02 01:07:01;;;;;;;;;;;;;;;-142.75;100.00;76877.38;5054914;28;19920;-67
2022/10/02 01:09:27;;;;;;;;;;;;;;;-142.75;100.00;76885.25;5054937;28;20000;-67
2022/10/02 01:11:52;;;;;;;;;;;;;;;-142.75;100.00;76889.19;5054849;28;20492;-67
2022/10/02 01:14:17;;;;;;;;;;;;;;;-142.75;100.00;76883.28;5054854;28;19920;-67
2022/10/02 01:16:43;;;;;;;;;;;;;;;-142.75;100.00;76883.28;5053256;28;19917;-67
2022/10/02 01:19:27;;;;;;;;;;;;;;;-142.75;100.00;76877.38;5053509;28;20440;-67
2022/10/02 01:21:57;;;;;;;;;;;;;;;-142.75;100.00;76865.56;5054612;28;19912;-67
2022/10/02 01:24:33;;;;;;;;;;;;;;;-142.75;100.00;76863.59;5054613;28;19967;-67
2022/10/02 01:26:58;;;;;;;;;;;;;;;-142.75;100.00;76861.63;5054393;28;19952;-67
2022/10/02 01:29:24;;;;;;;;;;;;;;;-142.75;100.00;76865.56;5054577;28;20006;-67
2022/10/02 01:31:49;;;;;;;;;;;;;;;-142.75;100.00;76865.56;5054495;28;20271;-67
2022/10/02 01:34:14;;;;;;;;;;;;;;;-142.75;100.00;76865.56;5054527;28;19912;-66
2022/10/02 01:36:40;;;;;;;;;;;;;;;-142.75;100.00;76865.56;5054188;28;19913;-67
2022/10/02 01:39:05;;;;;;;;;;;;;;;-142.75;100.00;76861.63;5053177;28;19913;-70
2022/10/02 01:41:33;;;;;;;;;;;;;;;-142.75;100.00;76861.63;5054446;28;20013;-70
2022/10/02 01:44:00;;;;;;;;;;;;;;;-142.75;100.00;76853.75;5054254;28;19917;-69
2022/10/02 01:46:44;;;;;;;;;;;;;;;-142.75;100.00;76855.72;5052890;28;19920;-70
2022/10/02 01:49:33;;;;;;;;;;;;;;;-142.75;100.00;76853.75;5054227;28;19912;-69
2022/10/02 01:52:05;;;;;;;;;;;;;;;-142.75;100.00;76863.59;5034406;28;19913;-70
2022/10/02 01:54:37;;;;;;;;;;;;;;;-142.75;100.00;76855.72;5054219;28;19944;-70
2022/10/02 01:57:08;;;;;;;;;;;;;;;-142.75;100.00;76867.53;5053755;28;19912;-70
2022/10/02 01:59:42;;;;;;;;;;;;;;;-142.75;100.00;76861.63;5053911;28;20378;-70
2022/10/02 02:02:34;;;;;;;;;;;;;;;-142.75;100.00;76857.69;5073058;22;19929;-69
2022/10/02 02:05:06;;;;;;;;;;;;;;;-142.75;100.00;76865.56;5051875;28;19917;-69
2022/10/02 02:07:34;;;;;;;;;;;;;;;-142.75;100.00;76857.69;5053640;28;19920;-69
2022/10/02 02:09:59;;;;;;;;;;;;;;;-142.75;100.00;76849.81;5053892;28;19992;-69
2022/10/02 02:12:34;;;;;;;;;;;;;;;-142.75;100.00;76849.81;5070200;28;19947;-69
2022/10/02 02:15:02;;;;;;;;;;;;;;;-142.75;100.00;76851.78;5073752;28;19919;-69
2022/10/02 02:17:32;;;;;;;;;;;;;;;-142.75;100.00;76849.81;5073371;28;20282;-69
2022/10/02 02:20:00;;;;;;;;;;;;;;;-142.75;100.00;76853.75;5073736;28;20360;-69
2022/10/02 02:22:32;;;;;;;;;;;;;;;-142.75;100.00;76845.88;5073544;28;20292;-69
2022/10/02 02:25:13;;;;;;;;;;;;;;;-142.75;100.00;76847.84;5073507;28;19920;-69
2022/10/02 02:27:40;;;;;;;;;;;;;;;-142.75;100.00;76851.78;5073143;28;19917;-69
2022/10/02 02:30:10;;;;;;;;;;;;;;;-142.75;100.00;76843.91;5073429;28;19966;-69
2022/10/02 02:32:38;;;;;;;;;;;;;;;-142.75;100.00;76845.88;5073300;28;19973;-69
2022/10/02 02:35:09;;;;;;;;;;;;;;;-142.75;100.00;76851.78;5071560;28;19913;-69
2022/10/02 02:37:37;;;;;;;;;;;;;;;-142.75;100.00;76851.78;5072916;28;19920;-69
2022/10/02 02:40:08;;;;;;;;;;;;;;;-142.75;100.00;76859.66;5073216;28;20298;-69
2022/10/02 02:42:37;;;;;;;;;;;;;;;-142.75;100.00;76853.75;5073059;28;20445;-69
2022/10/02 02:45:06;;;;;;;;;;;;;;;-142.75;100.00;76849.81;5073145;28;19976;-68
2022/10/02 02:47:39;;;;;;;;;;;;;;;-142.75;100.00;76845.88;5071783;28;19973;-69
2022/10/02 02:50:04;;;;;;;;;;;;;;;-142.75;100.00;76861.63;5073145;28;19912;-68
2022/10/02 02:52:32;;;;;;;;;;;;;;;-142.75;100.00;76861.63;5072996;28;19918;-69
2022/10/02 02:55:11;;;;;;;;;;;;;;;-142.75;100.00;76853.75;5072992;28;19912;-69
2022/10/02 02:57:40;;;;;;;;;;;;;;;-142.75;100.00;76865.56;5072557;28;20394;-69
2022/10/02 03:00:06;;;;;;;;;;;;;;;-142.75;100.00;76871.47;5072906;28;19913;-69
2022/10/02 03:02:32;;;;;;;;;;;;;;;-142.75;100.00;76869.50;5072714;28;19916;-69
2022/10/02 03:04:57;;;;;;;;;;;;;;;-142.75;100.00;76879.34;5072782;28;20019;-70
2022/10/02 03:07:22;;;;;;;;;;;;;;;-142.75;100.00;76883.28;5072397;28;19912;-69
2022/10/02 03:10:14;;;;;;;;;;;;;;;-142.75;100.00;76893.13;5072686;28;19979;-69
2022/10/02 03:12:58;;;;;;;;;;;;;;;-142.75;100.00;76889.19;5063166;28;19912;-69
2022/10/02 03:15:28;;;;;;;;;;;;;;;-142.75;100.00;76881.31;5072666;28;19955;-69
2022/10/02 03:18:06;;;;;;;;;;;;;;;-142.75;100.00;76879.34;5072268;28;19912;-69
2022/10/02 03:20:34;;;;;;;;;;;;;;;-142.75;100.00;76889.19;5072550;28;19912;-68
2022/10/02 03:23:13;;;;;;;;;;;;;;;-142.75;100.00;76893.13;5071226;28;19913;-69
2022/10/02 03:25:46;;;;;;;;;;;;;;;-142.75;100.00;76893.13;5072489;28;19916;-68
2022/10/02 03:28:17;;;;;;;;;;;;;;;-142.75;100.00;76904.94;5070795;28;19912;-69
2022/10/02 03:30:43;;;;;;;;;;;;;;;-142.75;100.00;76901.00;5072527;28;19917;-68
2022/10/02 03:33:10;;;;;;;;;;;;;;;-142.75;100.00;76904.94;5072396;28;20279;-69
2022/10/02 03:35:36;;;;;;;;;;;;;;;-142.75;100.00;76904.94;5072304;28;19916;-69
2022/10/02 03:38:03;;;;;;;;;;;;;;;-142.75;100.00;76901.00;5072056;28;19919;-69
2022/10/02 03:40:29;;;;;;;;;;;;;;;-142.75;100.00;76904.94;5072230;28;19913;-69
2022/10/02 03:42:57;;;;;;;;;;;;;;;-142.75;100.00;76924.63;5072135;28;19920;-69
2022/10/02 03:45:23;;;;;;;;;;;;;;;-142.75;100.00;76920.69;5072246;28;19912;-69
2022/10/02 03:47:48;;;;;;;;;;;;;;;-142.75;100.00;76920.69;5071070;28;19916;-69
2022/10/02 03:50:13;;;;;;;;;;;;;;;-142.75;100.00;76926.59;5072188;28;19935;-69
2022/10/02 03:52:39;;;;;;;;;;;;;;;-142.75;100.00;76920.69;5072069;28;19919;-69
2022/10/02 03:55:16;;;;;;;;;;;;;;;-142.75;100.00;76912.81;5070788;28;19963;-69
2022/10/02 03:57:42;;;;;;;;;;;;;;;-142.75;100.00;76912.81;5071869;28;19912;-69
2022/10/02 04:00:13;;;;;;;;;;;;;;;-142.75;100.00;76916.75;5072134;28;19998;-69
2022/10/02 04:02:40;;;;;;;;;;;;;;;-142.75;100.00;76922.66;5071966;28;19920;-69
2022/10/02 04:05:09;;;;;;;;;;;;;;;-142.75;100.00;76914.78;5072032;28;19952;-69
2022/10/02 04:07:40;;;;;;;;;;;;;;;-142.75;100.00;76926.59;5071656;28;20274;-69
2022/10/02 04:10:26;;;;;;;;;;;;;;;-142.75;100.00;76922.66;5070822;28;19931;-69
2022/10/02 04:12:56;;;;;;;;;;;;;;;-142.75;100.00;76916.75;5071996;28;19912;-69
2022/10/02 04:15:24;;;;;;;;;;;;;;;-142.75;100.00;76922.66;5072016;28;19913;-69
2022/10/02 04:18:02;;;;;;;;;;;;;;;-142.75;100.00;76926.59;5071683;28;20386;-69
2022/10/02 04:20:36;;;;;;;;;;;;;;;-142.75;100.00;76916.75;5071862;28;20030;-69
2022/10/02 04:23:21;;;;;;;;;;;;;;;-142.75;100.00;76920.69;5071792;28;19919;-69
2022/10/02 04:25:49;;;;;;;;;;;;;;;-142.75;100.00;76928.56;5070191;28;19955;-69
2022/10/02 04:28:16;;;;;;;;;;;;;;;-142.75;100.00;76928.56;5071588;28;19912;-69
2022/10/02 04:30:41;;;;;;;;;;;;;;;-142.75;100.00;76948.25;5071690;28;20357;-69
2022/10/02 04:33:14;;;;;;;;;;;;;;;-142.75;100.00;76944.31;5071830;28;20008;-69
2022/10/02 04:35:45;;;;;;;;;;;;;;;-142.75;100.00;76967.94;5071795;28;19919;-69
2022/10/02 04:38:19;;;;;;;;;;;;;;;-142.75;100.00;76973.84;5070147;28;19913;-69
2022/10/02 04:40:49;;;;;;;;;;;;;;;-142.75;100.00;76975.81;5071642;28;19912;-69
2022/10/02 04:43:33;;;;;;;;;;;;;;;-142.75;100.00;76973.84;5071558;28;19940;-69
2022/10/02 04:45:58;;;;;;;;;;;;;;;-142.75;100.00;76991.56;5071709;28;20401;-69
2022/10/02 04:48:26;;;;;;;;;;;;;;;-142.75;100.00;76991.56;5071456;28;20012;-69
2022/10/02 04:50:58;;;;;;;;;;;;;;;-142.75;100.00;77005.34;5071616;28;19995;-68
2022/10/02 04:53:58;;;;;;;;;;;;;;;-142.75;100.00;77009.28;5071620;28;19981;-69
2022/10/02 04:56:44;;;;;;;;;;;;;;;-142.75;100.00;77015.19;5049129;28;19912;-69
2022/10/02 04:59:24;;;;;;;;;;;;;;;-142.75;100.00;76999.44;5072680;28;19918;-69
2022/10/02 05:01:50;;;;;;;;;;;;;;;-142.75;100.00;77011.25;5075092;28;19916;-69
2022/10/02 05:04:25;;;;;;;;;;;;;;;-142.75;100.00;77011.25;5075078;28;19924;-69
2022/10/02 05:07:03;;;;;;;;;;;;;;;-142.75;100.00;77003.38;5074849;28;19966;-69
2022/10/02 05:09:43;;;;;;;;;;;;;;;-142.75;100.00;77027.00;5075016;28;19923;-69
2022/10/02 05:12:28;;;;;;;;;;;;;;;-142.75;100.00;77023.06;5074959;28;20460;-69
2022/10/02 05:15:08;;;;;;;;;;;;;;;-142.75;100.00;77028.97;5063539;28;19958;-69
2022/10/02 05:17:52;;;;;;;;;;;;;;;-142.75;100.00;77036.84;5074612;28;19990;-69
2022/10/02 05:20:34;;;;;;;;;;;;;;;-142.75;100.00;77023.06;5075125;28;19962;-69
2022/10/02 05:23:02;;;;;;;;;;;;;;;-142.75;100.00;77023.06;5074795;28;19916;-69
2022/10/02 05:25:45;;;;;;;;;;;;;;;-142.75;100.00;77023.06;5074670;28;19948;-69
2022/10/02 05:28:29;;;;;;;;;;;;;;;-142.75;100.00;77021.09;5074443;28;19912;-69
2022/10/02 05:31:13;;;;;;;;;;;;;;;-142.75;100.00;77027.00;5074592;28;19917;-69
2022/10/02 05:33:38;;;;;;;;;;;;;;;-142.75;100.00;77030.94;5074624;28;19917;-69
2022/10/02 05:36:27;;;;;;;;;;;;;;;-142.75;100.00;77048.66;5074667;28;19935;-68
2022/10/02 05:38:59;;;;;;;;;;;;;;;-142.75;100.00;77046.69;5074333;28;19981;-69
2022/10/02 05:41:43;;;;;;;;;;;;;;;-142.75;100.00;77042.75;5074334;28;19966;-69
2022/10/02 05:44:16;;;;;;;;;;;;;;;-142.75;100.00;77030.94;5074364;28;20410;-68
2022/10/02 05:47:06;;;;;;;;;;;;;;;-142.75;100.00;77028.97;5074039;28;19919;-69
2022/10/02 05:49:40;;;;;;;;;;;;;;;-142.75;100.00;77027.00;5074297;28;19912;-69
2022/10/02 05:52:11;;;;;;;;;;;;;;;-142.75;100.00;77030.94;5074174;28;20374;-68
2022/10/02 05:54:50;;;;;;;;;;;;;;;-142.75;100.00;77036.84;5074230;28;19912;-68
2022/10/02 05:57:15;;;;;;;;;;;;;;;-142.75;100.00;77038.81;5073874;28;19944;-69
2022/10/02 05:59:55;;;;;;;;;;;;;;;-142.75;100.00;77042.75;5074108;28;20424;-69
2022/10/02 06:02:27;;;;;;;;;;;;;;;-142.75;100.00;77036.84;5073789;28;20382;-69
2022/10/02 06:04:56;;;;;;;;;;;;;;;-142.75;100.00;77032.91;5073959;28;19986;-68
2022/10/02 06:07:24;;;;;;;;;;;;;;;-142.75;100.00;77030.94;5073639;28;19918;-69
2022/10/02 06:09:55;;;;;;;;;;;;;;;-142.75;100.00;77030.94;5073023;28;19920;-69
2022/10/02 06:12:27;;;;;;;;;;;;;;;-142.75;100.00;77028.97;5073810;28;19958;-68
2022/10/02 06:14:56;;;;;;;;;;;;;;;-142.75;100.00;77032.91;5073730;28;19919;-70
2022/10/02 06:17:25;;;;;;;;;;;;;;;-142.75;100.00;77023.06;5073444;28;20293;-69
2022/10/02 06:20:00;;;;;;;;;;;;;;;-142.75;100.00;77027.00;5073666;28;19912;-68
2022/10/02 06:22:28;;;;;;;;;;;;;;;-142.75;100.00;77030.94;5073532;28;19920;-68
2022/10/02 06:25:03;;;;;;;;;;;;;;;-142.75;100.00;77019.13;5073519;28;19924;-68
2022/10/02 06:27:28;;;;;;;;;;;;;;;-142.75;100.00;77011.25;5073157;28;19917;-68
2022/10/02 06:29:56;;;;;;;;;;;;;;;-142.75;100.00;77015.19;5073494;28;19913;-68
2022/10/02 06:32:44;;;;;;;;;;;;;;;-142.75;100.00;77021.09;5073336;28;20022;-68
2022/10/02 06:35:11;;;;;;;;;;;;;;;-142.75;100.00;77023.06;5073225;28;19913;-69
2022/10/02 06:37:55;;;;;;;;;;;;;;;-142.75;100.00;77013.22;5072941;28;19913;-68
2022/10/02 06:40:28;;;;;;;;;;;;;;;-142.75;100.00;77023.06;5073310;28;19919;-68
2022/10/02 06:42:53;;;;;;;;;;;;;;;-142.75;100.00;77023.06;5073174;28;19919;-68
2022/10/02 06:45:22;;;;;;;;;;;;;;;-142.75;100.00;77025.03;5073185;28;19912;-69
2022/10/02 06:48:04;;;;;;;;;;;;;;;-142.75;100.00;77030.94;5072759;28;20370;-68
2022/10/02 06:50:42;;;;;;;;;;;;;;;-142.75;100.00;77019.13;5072995;28;19919;-68
2022/10/02 06:53:28;;;;;;;;;;;;;;;-142.75;100.00;77021.09;5072969;28;20001;-68
2022/10/02 06:56:08;;;;;;;;;;;;;;;-142.75;100.00;77027.00;5072981;28;19999;-68
2022/10/02 06:58:34;;;;;;;;;;;;;;;-142.75;100.00;77017.16;5072605;28;19926;-69
2022/10/02 07:01:05;;;;;;;;;;;;;;;-142.75;100.00;77023.06;5071458;28;19942;-68
2022/10/02 07:03:36;;;;;;;;;;;;;;;-142.75;100.00;77019.13;5071465;28;19938;-68
2022/10/02 07:06:02;;;;;;;;;;;;;;;-142.75;100.00;77013.22;5072836;28;20409;-69
2022/10/02 07:08:30;;;;;;;;;;;;;;;-142.75;100.00;76993.53;5072281;28;19923;-68
2022/10/02 07:10:59;;;;;;;;;;;;;;;-142.75;100.00;76985.66;5072569;28;19916;-69
2022/10/02 07:13:34;;;;;;;;;;;;;;;-142.75;100.00;76987.63;5072538;28;19921;-68
2022/10/02 07:16:17;;;;;;;;;;;;;;;-142.75;100.00;76999.44;5072676;28;19959;-69
2022/10/02 07:19:01;;;;;;;;;;;;;;;-142.75;100.00;76991.56;5072329;28;20370;-69
2022/10/02 07:21:37;;;;;;;;;;;;;;;-142.75;100.00;76991.56;5072262;28;20362;-68
2022/10/02 07:24:12;;;;;;;;;;;;;;;-142.75;100.00;77001.41;5072448;28;19923;-69
2022/10/02 07:26:46;;;;;;;;;;;;;;;-142.75;100.00;76995.50;5072176;28;19913;-67
2022/10/02 07:29:28;;;;;;;;;;;;;;;-142.75;100.00;76987.63;5072387;28;20302;-69
2022/10/02 07:32:02;;;;;;;;;;;;;;;-142.75;100.00;76989.59;5072327;28;20297;-69
2022/10/02 07:34:43;;;;;;;;;;;;;;;-142.75;100.00;76981.72;5071106;28;20290;-68
2022/10/02 07:37:26;;;;;;;;;;;;;;;-142.75;100.00;76971.88;5071997;28;19916;-68
2022/10/02 07:40:10;;;;;;;;;;;;;;;-142.75;100.00;76979.75;5072436;28;20299;-68
2022/10/02 07:42:54;;;;;;;;;;;;;;;-142.75;100.00;76989.59;5072485;28;20003;-68
2022/10/02 07:45:19;;;;;;;;;;;;;;;-142.75;100.00;76975.81;5072116;28;19921;-69
2022/10/02 07:47:59;;;;;;;;;;;;;;;-142.75;100.00;76977.78;5071940;28;19912;-68
2022/10/02 07:50:24;;;;;;;;;;;;;;;-142.75;100.00;76964.00;5072219;28;19920;-69
2022/10/02 07:53:08;;;;;;;;;;;;;;;-142.75;100.00;76956.13;5072013;28;20496;-69
2022/10/02 07:55:37;;;;;;;;;;;;;;;-142.75;100.00;76944.31;5072213;28;19912;-69
2022/10/02 07:58:11;;;;;;;;;;;;;;;-142.75;100.00;76936.44;5070649;28;19967;-68
2022/10/02 08:00:39;;;;;;;;;;;;;;;-142.75;100.00;76936.44;5071462;28;19960;-68
2022/10/02 08:03:23;;;;;;;;;;;;;;;-142.75;100.00;76942.34;5073514;23;20352;-69
2022/10/02 08:05:51;;;;;;;;;;;;;;;-142.75;100.00;76934.47;5066155;28;20302;-69
2022/10/02 08:08:25;;;;;;;;;;;;;;;-142.75;100.00;76944.31;5051696;28;19917;-70
2022/10/02 08:11:08;;;;;;;;;;;;;;;-142.75;100.00;76932.50;5051973;28;20400;-69
2022/10/02 08:13:36;;;;;;;;;;;;;;;-142.75;100.00;76930.53;5032212;28;19913;-69
2022/10/02 08:16:05;;;;;;;;;;;;;;;-142.75;100.00;76920.69;5064101;28;19917;-69
2022/10/02 08:18:36;;;;;;;;;;;;;;;-142.75;100.00;76910.84;5030567;28;19913;-68
2022/10/02 08:21:04;;;;;;;;;;;;;;;-142.75;100.00;76897.06;5031929;28;19913;-69
2022/10/02 08:23:36;;;;;;;;;;;;;;;-142.75;100.00;76899.03;5032021;28;20404;-70
2022/10/02 08:26:20;;;;;;;;;;;;;;;-142.75;100.00;76883.28;5032051;28;20379;-71
2022/10/02 08:29:04;;;;;;;;;;;;;;;-142.75;100.00;76881.31;5030352;28;19939;-70
2022/10/02 08:31:29;;;;;;;;;;;;;;;-142.75;100.00;76871.47;5047203;28;19913;-69
2022/10/02 08:33:56;;;;;;;;;;;;;;;-142.75;100.00;76861.63;5034378;28;19923;-70
2022/10/02 08:36:44;;;;;;;;;;;;;;;-142.75;100.00;76857.69;5035668;28;19913;-69
2022/10/02 08:39:33;;;;;;;;;;;;;;;-142.75;100.00;76865.56;5035750;28;19913;-69
2022/10/02 08:42:07;;;;;;;;;;;;;;;-142.75;100.00;76843.91;5046963;28;19913;-70
2022/10/02 08:44:51;;;;;;;;;;;;;;;-142.75;100.00;76824.22;5026148;28;19936;-70
2022/10/02 08:47:34;;;;;;;;;;;;;;;-142.75;100.00;76780.94;5033386;28;20003;-67
2022/10/02 08:50:18;;;;;;;;;;;;;;;-142.75;100.00;76739.59;5015599;28;20276;-69
2022/10/02 08:53:02;;;;;;;;;;;;;;;-142.75;100.00;76700.22;5015608;28;19914;-69
2022/10/02 08:55:46;;;;;;;;;;;;;;;-142.75;100.00;76664.78;5015490;28;19914;-69
2022/10/02 08:58:26;;;;;;;;;;;;;;;-142.75;100.00;76631.31;5015228;28;19917;-70
2022/10/02 09:00:57;;;;;;;;;;;;;;;-142.75;100.00;76615.56;5023092;28;19913;-70
2022/10/02 09:03:26;;;;;;;;;;;;;;;-142.75;100.00;76599.81;5066849;28;19921;-67
2022/10/02 09:05:54;;;;;;;;;;;;;;;-142.75;100.00;76611.63;5035329;28;19913;-67
2022/10/02 09:08:32;;;;;;;;;;;;;;;-142.75;100.00;76617.53;5034121;28;19917;-69
2022/10/02 09:11:23;;;;;;;;;;;;;;;-142.75;100.00;76615.56;5032181;28;19924;-69
2022/10/02 09:13:49;;;;;;;;;;;;;;;-142.75;100.00;76611.63;5026408;28;19920;-68
2022/10/02 09:16:26;;;;;;;;;;;;;;;-142.75;100.00;76597.84;5026457;28;19917;-69
2022/10/02 09:18:59;;;;;;;;;;;;;;;-142.75;100.00;76605.72;5023937;28;20383;-69
2022/10/02 09:21:43;;;;;;;;;;;;;;;-142.75;100.00;76635.25;5029088;28;19924;-70
2022/10/02 09:24:17;;;;;;;;;;;;;;;-142.75;100.00;76660.84;5034410;28;19917;-69
2022/10/02 09:27:01;;;;;;;;;;;;;;;-142.75;100.00;76670.69;5034154;28;19916;-68
2022/10/02 09:29:47;;;;;;;;;;;;;;;-142.75;100.00;76708.09;5048775;28;20305;-69
2022/10/02 09:32:26;;;;;;;;;;;;;;;-142.75;100.00;76735.66;5047223;28;20014;-69
2022/10/02 09:34:51;;;;;;;;;;;;;;;-142.75;100.00;76737.63;5036845;28;20390;-68
2022/10/02 09:37:27;;;;;;;;;;;;;;;-142.75;100.00;76715.97;5035294;28;19925;-68
2022/10/02 09:40:11;;;;;;;;;;;;;;;-142.75;100.00;76674.63;5018045;28;19960;-68
2022/10/02 09:42:39;;;;;;;;;;;;;;;-142.75;100.00;76611.63;5021685;28;19913;-69
2022/10/02 09:45:17;;;;;;;;;;;;;;;-142.75;100.00;76613.59;5027092;28;19921;-69
2022/10/02 09:47:48;;;;;;;;;;;;;;;-142.75;100.00;76548.63;5024803;28;20311;-69
2022/10/02 09:50:32;;;;;;;;;;;;;;;-142.75;100.00;76483.69;5017088;28;20275;-70
2022/10/02 09:53:15;;;;;;;;;;;;;;;-142.75;100.00;76448.25;5014470;28;19974;-69
2022/10/02 09:55:52;;;;;;;;;;;;;;;-142.75;100.00;76416.75;5029337;28;19917;-70
2022/10/02 09:58:34;;;;;;;;;;;;;;;-142.75;100.00;76481.72;5031656;28;19928;-70
2022/10/02 10:01:12;;;;;;;;;;;;;;;-142.75;100.00;76491.56;5045268;28;19921;-70
2022/10/02 10:03:46;;;;;;;;;;;;;;;-142.75;100.00;76550.59;5024751;28;19921;-69
2022/10/02 10:06:27;;;;;;;;;;;;;;;-142.75;100.00;76588.00;5012892;28;19913;-69
2022/10/02 10:09:10;;;;;;;;;;;;;;;-142.75;100.00;76586.03;5014291;28;19920;-69
2022/10/02 10:11:50;;;;;;;;;;;;;;;-142.75;100.00;76609.66;5014108;28;19921;-68
2022/10/02 10:14:18;;;;;;;;;;;;;;;-142.75;100.00;76609.66;5019982;28;19917;-67
2022/10/02 10:17:04;;;;;;;;;;;;;;;-142.75;100.00;76617.53;5033569;28;19917;-68
2022/10/02 10:19:53;;;;;;;;;;;;;;;-142.75;100.00;76621.47;5032982;28;19936;-69
2022/10/02 10:22:41;;;;;;;;;;;;;;;-142.75;100.00;76580.13;5032764;28;20011;-67
2022/10/02 10:25:27;;;;;;;;;;;;;;;-142.75;100.00;76554.53;5033604;28;20362;-69
2022/10/02 10:27:55;;;;;;;;;;;;;;;-142.75;100.00;76574.22;5033452;28;19920;-69
2022/10/02 10:30:35;;;;;;;;;;;;;;;-142.75;100.00;76554.53;5032377;28;19913;-69
2022/10/02 10:33:19;;;;;;;;;;;;;;;-142.75;100.00;76556.50;5033503;28;19913;-69
2022/10/02 10:35:57;;;;;;;;;;;;;;;-142.75;100.00;76597.84;5032247;28;19920;-69
2022/10/02 10:38:41;;;;;;;;;;;;;;;-142.75;100.00;76593.91;5033200;28;20299;-69
2022/10/02 10:41:25;;;;;;;;;;;;;;;-142.75;100.00;76619.50;5033037;28;20387;-69
2022/10/02 10:44:09;;;;;;;;;;;;;;;-142.75;100.00;76631.31;5023071;28;19917;-69
2022/10/02 10:46:34;;;;;;;;;;;;;;;-142.75;100.00;76649.03;5022915;28;19917;-67
2022/10/02 10:49:02;;;;;;;;;;;;;;;-142.75;100.00;76664.78;5046464;28;19936;-68
2022/10/02 10:51:31;;;;;;;;;;;;;;;-142.75;100.00;76621.47;5013187;28;19914;-69
2022/10/02 10:54:03;;;;;;;;;;;;;;;-142.75;100.00;76605.72;5033060;28;19917;-68
2022/10/02 10:57:09;;;;;;;;;;;;;;;-142.75;100.00;76534.84;5028602;28;20005;-68
2022/10/02 10:59:43;;;;;;;;;;;;;;;-142.75;100.00;76477.78;5006421;28;20012;-69
2022/10/02 11:02:34;;;;;;;;;;;;;;;-142.75;100.00;76471.88;5010788;28;19917;-69
2022/10/02 11:05:18;;;;;;;;;;;;;;;-142.75;100.00;76485.66;5026485;28;19917;-69
2022/10/02 11:07:51;;;;;;;;;;;;;;;-142.75;100.00;76505.34;5032565;28;20007;-68
2022/10/02 11:10:26;;;;;;;;;;;;;;;-142.75;100.00;76525.03;5032956;28;19913;-70
2022/10/02 11:13:10;;;;;;;;;;;;;;;-142.75;100.00;76523.06;5064708;28;19913;-69
2022/10/02 11:15:51;;;;;;;;;;;;;;;-142.75;100.00;76544.69;5064344;28;20391;-69
2022/10/02 11:18:29;;;;;;;;;;;;;;;-142.75;100.00;76487.63;5031110;28;19917;-68
2022/10/02 11:21:10;;;;;;;;;;;;;;;-142.75;100.00;76487.63;5032668;28;19913;-68
2022/10/02 11:23:38;;;;;;;;;;;;;;;-142.75;100.00;76460.06;5032622;28;19917;-68
2022/10/02 11:26:22;;;;;;;;;;;;;;;-142.75;100.00;76456.13;5032681;28;20004;-68
2022/10/02 11:28:55;;;;;;;;;;;;;;;-142.75;100.00;76467.94;5032356;28;19920;-68
2022/10/02 11:31:29;;;;;;;;;;;;;;;-142.75;100.00;76412.81;5032345;28;19913;-69
2022/10/02 11:34:00;;;;;;;;;;;;;;;-142.75;100.00;76438.41;5032369;28;19960;-70
2022/10/02 11:36:41;;;;;;;;;;;;;;;-142.75;100.00;76465.97;5032431;28;19917;-68
2022/10/02 11:39:33;;;;;;;;;;;;;;;-142.75;100.00;76456.13;5026367;28;20454;-68
2022/10/02 11:42:06;;;;;;;;;;;;;;;-142.75;100.00;76420.69;5023642;28;20401;-69
2022/10/02 11:44:40;;;;;;;;;;;;;;;-142.75;100.00;76393.13;5061072;28;19987;-68
2022/10/02 11:47:08;;;;;;;;;;;;;;;-142.75;100.00;76391.16;5058196;28;20457;-70
2022/10/02 11:49:36;;;;;;;;;;;;;;;-142.75;100.00;76349.81;5032087;28;20378;-69
2022/10/02 11:52:04;;;;;;;;;;;;;;;-142.75;100.00;76349.81;5032241;28;19913;-70
2022/10/02 11:54:29;;;;;;;;;;;;;;;-142.75;100.00;76345.91;5028638;28;20271;-69
2022/10/02 11:57:07;;;;;;;;;;;;;;;-142.75;100.00;76347.84;5021067;28;19985;-69
2022/10/02 11:59:32;;;;;;;;;;;;;;;-142.75;100.00;76296.69;5020854;28;19952;-69
2022/10/02 12:02:05;;;;;;;;;;;;;;;-142.75;100.00;76259.28;5021977;28;19964;-66
2022/10/02 12:04:40;;;;;;;;;;;;;;;-142.75;100.00;76263.22;5024315;28;20059;-69
2022/10/02 12:07:20;;;;;;;;;;;;;;;-142.75;100.00;76174.66;5028624;28;19986;-66
2022/10/02 12:10:04;;;;;;;;;;;;;;;-142.75;98.05;76133.31;5064959;28;19919;-66
2022/10/02 12:12:58;;;;;;;;;;;;;;;-142.75;92.81;76156.94;5032528;28;19917;-69
2022/10/02 12:15:29;;;;;;;;;;;;;;;-142.75;98.62;76210.06;5032525;28;19958;-69
2022/10/02 12:18:13;;;;;;;;;;;;;;;-142.75;96.92;76227.78;5019928;28;20505;-68
2022/10/02 12:26:59;;;;;;;;;;;;;;;-142.75;100.00;76263.22;5015914;28;20434;-68
2022/10/02 12:29:34;;;;;;;;;;;;;;;-142.75;100.00;76343.94;5049681;28;19924;-68
2022/10/02 12:32:21;;;;;;;;;;;;;;;-142.75;100.00;76464.00;5035749;28;20452;-69
2022/10/02 12:34:52;;;;;;;;;;;;;;;-142.75;100.00;76536.84;5035797;28;19940;-66
2022/10/02 12:37:24;;;;;;;;;;;;;;;-142.75;100.00;76546.66;5035270;28;19913;-69
2022/10/02 12:40:12;;;;;;;;;;;;;;;-142.75;100.00;76576.19;5035737;28;19953;-69
2022/10/02 12:42:49;;;;;;;;;;;;;;;-142.75;100.00;76617.53;5035483;28;19967;-69
2022/10/02 12:45:15;;;;;;;;;;;;;;;-142.75;100.00;76621.47;5035501;28;20008;-66
2022/10/02 12:47:46;;;;;;;;;;;;;;;-142.75;100.00;76664.78;5035245;28;20390;-68
2022/10/02 12:50:20;;;;;;;;;;;;;;;-142.75;100.00;76688.41;5035422;28;20375;-69
2022/10/02 12:52:55;;;;;;;;;;;;;;;-142.75;100.00;76692.34;5067419;28;20040;-70
2022/10/02 12:55:35;;;;;;;;;;;;;;;-142.75;100.00;76725.81;5035419;28;19920;-68
2022/10/02 12:58:06;;;;;;;;;;;;;;;-142.75;100.00;76731.72;5035141;28;19913;-69
2022/10/02 13:00:47;;;;;;;;;;;;;;;-142.75;100.00;76719.91;5035342;28;19913;-69
2022/10/02 13:03:31;;;;;;;;;;;;;;;-142.75;100.00;76700.22;5066990;28;19917;-68